ADDS METAR Data INFO
IDs: Format: Raw Decoded Include TAF

Data at: 0843 UTC 27 Jun 2017

KCWC 270835Z AUTO 10006KT 10SM CLR 22/20 A3007 RMK AO2 T02160204
KCWC 270815Z AUTO 11006KT 10SM CLR 22/21 A3007 RMK AO2 T02170205
KCWC 270755Z AUTO 11004KT 10SM CLR 22/21 A3007 RMK AO2 T02200205
KCWC 270735Z AUTO 11009KT 10SM CLR 22/21 A3006 RMK AO2 T02200205
KCWC 270715Z AUTO 11009KT 10SM CLR 22/21 A3007 RMK AO2 T02200206
KCWC 270655Z AUTO 11009KT 10SM CLR 22/21 A3008 RMK AO2 T02210207
KCWC 270635Z AUTO 10004KT 10SM CLR 22/21 A3008 RMK AO2 T02210208
KCWC 270615Z AUTO 10004KT 10SM CLR 23/21 A3009 RMK AO2 T02260210
KCWC 270555Z AUTO 10006KT 10SM CLR 23/21 A3009 RMK AO2 T02260210 10295 20226 403020200
KCWC 270535Z AUTO 11009KT 10SM CLR 23/21 A3009 RMK AO2 T02300211
KCWC 270515Z AUTO 10009KT 10SM CLR 23/21 A3008 RMK AO2 T02300210
KCWC 270455Z AUTO 10009KT 10SM CLR 23/21 A3008 RMK AO2 T02320212
KCWC 270435Z AUTO 13006KT 10SM CLR 23/21 A3007 RMK AO2 T02320212
KCWC 270415Z AUTO 10009KT 10SM CLR 24/21 A3007 RMK AO2 T02380211
KCWC 270355Z AUTO 11006KT 10SM CLR 24/21 A3007 RMK AO2 T02430212
KCWC 270335Z AUTO 11005KT 10SM CLR 25/21 A3007 RMK AO2 T02450212
KCWC 270315Z AUTO 12005KT 10SM CLR 25/21 A3006 RMK AO2 T02500211
KCWC 270255Z AUTO 11008KT 10SM CLR 25/21 A3005 RMK AO2 T02520211
KCWC 270235Z AUTO 13005KT 10SM CLR 26/21 A3005 RMK AO2 T02550211
KCWC 270215Z AUTO 14003KT 10SM CLR 26/21 A3005 RMK AO2 T02620210
KCWC 270155Z AUTO 13004KT 10SM CLR 27/21 A3005 RMK AO2 T02680211
KCWC 270135Z AUTO 12004KT 10SM CLR 28/21 A3005 RMK AO2 T02760207
KCWC 270115Z AUTO 11008G15KT 10SM CLR 28/21 A3004 RMK AO2 T02820206
KCWC 270055Z AUTO 11006G15KT 10SM CLR 29/21 A3004 RMK AO2 T02870206
KCWC 270035Z AUTO 11009G15KT 10SM CLR 29/21 A3004 RMK AO2 T02910205
KCWC 270020Z AUTO 12008G16KT 10SM CLR 29/21 A3004 RMK AO2 T02920206
KCWC 262355Z AUTO 12007G16KT 10SM CLR 30/20 A3004 RMK AO2 T02950204 10302 20262
KCWC 262335Z AUTO 08003G15KT 10SM CLR 30/21 A3004 RMK AO2 T02960206
KCWC 262315Z AUTO 09005G15KT 10SM CLR 30/21 A3005 RMK AO2 T02950205
KCWC 262255Z AUTO 09007G14KT 10SM CLR 30/21 A3005 RMK AO2 T02970208
KCWC 262235Z AUTO 13007G16KT 10SM CLR 30/21 A3006 RMK AO2 T02970205
KCWC 262215Z AUTO 08007KT 10SM SCT036 SCT043 SCT049 29/20 A3006 RMK AO2 T02940204
KCWC 262155Z AUTO 09005KT 10SM SCT036 SCT043 30/21 A3007 RMK AO2 T02950205
KCWC 262135Z AUTO 08004KT 10SM SCT038 SCT044 29/20 A3008 RMK AO2 T02900200
KCWC 262115Z AUTO 12003KT 10SM SCT040 29/20 A3008 RMK AO2 T02920199
KCWC 262055Z AUTO 12003KT 10SM SCT032 SCT040 29/20 A3009 RMK AO2 T02860201
KCWC 262035Z AUTO 07007KT 10SM SCT030 29/21 A3010 RMK AO2 T02940212
KCWC 262015Z AUTO 08003KT 10SM SCT028 SCT038 SCT090 28/21 A3011 RMK AO2 T02800210
KCWC 261955Z AUTO 08005KT 10SM SCT028 BKN036 BKN044 28/21 A3012 RMK AO2 T02820207
KCWC 261935Z AUTO 09005KT 10SM SCT025 BKN031 BKN039 28/21 A3012 RMK AO2 T02750205
KCWC 261915Z AUTO 00000KT 10SM BKN024 BKN031 27/21 A3013 RMK AO2 T02710207
KCWC 261855Z AUTO 00000KT 10SM SCT024 SCT033 27/21 A3014 RMK AO2 T02680208
KCWC 261835Z AUTO 11004KT 10SM SCT020 SCT026 27/21 A3015 RMK AO2 T02680209
KCWC 261815Z AUTO 16003KT 10SM SCT020 SCT026 BKN070 27/21 A3016 RMK AO2 T02650210
KCWC 261755Z AUTO 13003KT 10SM SCT070 SCT080 27/21 A3017 RMK AO2 T02650212 10265 20200
KCWC 261735Z AUTO 10004KT 10SM CLR 26/21 A3017 RMK AO2 T02590208
KCWC 261715Z AUTO 13003KT 10SM CLR 26/21 A3018 RMK AO2 T02570207
KCWC 261655Z AUTO 12004KT 10SM SCT070 25/21 A3018 RMK AO2 T02510206
KCWC 261635Z AUTO 10005KT 10SM SCT090 25/21 A3019 RMK AO2 T02490205
KCWC 261615Z AUTO 10007KT 10SM BKN075 OVC090 24/20 A3019 RMK AO2 T02400201
KCWC 261555Z AUTO 12009KT 10SM SCT034 OVC075 24/20 A3020 RMK AO2 T02350198
KCWC 261535Z AUTO 12008KT 10SM BKN030 OVC075 24/20 A3020 RMK AO2 T02350196
KCWC 261515Z AUTO 12005KT 10SM OVC026 23/20 A3020 RMK AO2 T02320195
KCWC 261455Z AUTO 07003KT 10SM SCT011 SCT027 OVC075 23/19 A3021 RMK AO2 T02300192
KCWC 261435Z AUTO 11004KT 10SM OVC075 23/19 A3021 RMK AO2 T02280192
KCWC 261415Z AUTO 12005KT 10SM SCT033 SCT060 OVC075 23/19 A3020 RMK AO2 T02260190
KCWC 261355Z AUTO 13008KT 10SM SCT033 BKN060 OVC075 22/19 A3020 RMK AO2 T02210186
KCWC 261335Z AUTO 00000KT 10SM SCT035 OVC075 22/18 A3020 RMK AO2 T02180182
KCWC 261315Z AUTO 06003KT 10SM SCT035 OVC075 22/18 A3020 RMK AO2 T02150181
KCWC 261255Z AUTO 09004KT 10SM BKN075 OVC120 21/18 A3019 RMK AO2 T02100180
KCWC 261235Z AUTO 09003KT 10SM SCT060 BKN075 BKN120 21/18 A3019 RMK AO2 T02070178
KCWC 261215Z AUTO 00000KT 10SM SCT060 SCT075 20/18 A3019 RMK AO2 T02010177
KCWC 261155Z AUTO 00000KT 10SM CLR 20/18 A3018 RMK AO2 T02010176 10227 20201
KCWC 261135Z AUTO 10003KT 10SM BKN070 20/18 A3018 RMK AO2 T02030176
KCWC 261115Z AUTO 00000KT 10SM BKN070 20/18 A3018 RMK AO2 T02020175
KCWC 261055Z AUTO 00000KT 10SM CLR 20/18 A3018 RMK AO2 T02010175
KCWC 261035Z AUTO 00000KT 10SM CLR 21/18 A3018 RMK AO2 T02050175
KCWC 261015Z AUTO 00000KT 10SM CLR 21/17 A3018 RMK AO2 T02080173
KCWC 260955Z AUTO 00000KT 10SM CLR 21/17 A3018 RMK AO2 T02070173
KCWC 260935Z AUTO 03003KT 10SM SCT120 21/17 A3018 RMK AO2 T02110170
KCWC 260915Z AUTO 00000KT 10SM SCT120 21/17 A3018 RMK AO2 T02100170
KCWC 260855Z AUTO 00000KT 10SM CLR 21/17 A3017 RMK AO2 T02060171
KCWC 260835Z AUTO 13003KT 10SM CLR 21/17 A3016 RMK AO2 T02130170
KCWC 260815Z AUTO 11003KT 10SM CLR 22/17 A3017 RMK AO2 T02150168
KCWC 260755Z AUTO 13005KT 10SM CLR 22/17 A3017 RMK AO2 T02150166
KCWC 260735Z AUTO 11005KT 10SM CLR 22/17 A3019 RMK AO2 T02180165
KCWC 260715Z AUTO 12005KT 10SM CLR 22/16 A3019 RMK AO2 T02200163
KCWC 260655Z AUTO 13006KT 10SM CLR 22/16 A3019 RMK AO2 T02210163
KCWC 260635Z AUTO 12006KT 10SM CLR 22/17 A3020 RMK AO2 T02230167
KCWC 260615Z AUTO 12006KT 10SM CLR 22/17 A3020 RMK AO2 T02240170
KCWC 260555Z AUTO 11006KT 10SM CLR 23/17 A3020 RMK AO2 T02270171 10291 20223 402980184
KCWC 260535Z AUTO 12006KT 10SM CLR 22/18 A3019 RMK AO2 T02240176
KCWC 260515Z AUTO 10005KT 10SM CLR 23/18 A3020 RMK AO2 T02250177
KCWC 260455Z AUTO 12006KT 10SM CLR 23/18 A3019 RMK AO2 T02300175
KCWC 260435Z AUTO 11006KT 10SM CLR 23/18 A3018 RMK AO2 T02300175
KCWC 260415Z AUTO 12006KT 10SM CLR 24/18 A3018 RMK AO2 T02350175
KCWC 260355Z AUTO 11006KT 10SM CLR 24/18 A3018 RMK AO2 T02370177
KCWC 260335Z AUTO 12009KT 10SM CLR 24/18 A3017 RMK AO2 T02400178
KCWC 260315Z AUTO 12008KT 10SM CLR 24/18 A3016 RMK AO2 T02430178
KCWC 260255Z AUTO 10006KT 10SM CLR 25/18 A3017 RMK AO2 T02460180
KCWC 260235Z AUTO 10008KT 10SM SCT050 25/18 A3017 RMK AO2 T02510178
KCWC 260215Z AUTO 11008KT 10SM CLR 26/18 A3017 RMK AO2 T02560177
KCWC 260155Z AUTO 11008KT 10SM CLR 26/18 A3016 RMK AO2 T02610175
KCWC 260135Z AUTO 10012KT 10SM CLR 27/18 A3016 RMK AO2 T02700175
KCWC 260115Z AUTO 10010KT 10SM CLR 28/17 A3017 RMK AO2 T02770172
KCWC 260055Z AUTO 10008G14KT 10SM CLR 28/17 A3016 RMK AO2 T02820170
KCWC 260035Z AUTO 11009G14KT 10SM CLR 29/16 A3016 RMK AO2 T02870164
KCWC 260015Z AUTO 10003G15KT 10SM CLR 29/16 A3016 RMK AO2 T02890162
KCWC 252355Z AUTO 10011G14KT 10SM CLR 29/16 A3015 RMK AO2 T02920164 10298 20275
KCWC 252335Z AUTO 12006G16KT 10SM CLR 29/16 A3016 RMK AO2 T02940162
KCWC 252315Z AUTO 12012G17KT 10SM CLR 30/16 A3016 RMK AO2 T02950156
KCWC 252255Z AUTO 14008G16KT 10SM CLR 30/16 A3016 RMK AO2 T02960156
KCWC 252235Z AUTO 10007KT 10SM CLR 30/16 A3016 RMK AO2 T02950160
KCWC 252215Z AUTO 12007G17KT 100V160 10SM CLR 30/16 A3017 RMK AO2 T02970157
KCWC 252155Z AUTO 08007G15KT 10SM CLR 29/16 A3018 RMK AO2 T02940158
KCWC 252135Z AUTO 09009KT 10SM CLR 29/16 A3019 RMK AO2 T02920157
KCWC 252115Z AUTO 12005KT 10SM CLR 29/15 A3020 RMK AO2 T02900153
KCWC 252055Z AUTO 08007KT 10SM CLR 30/15 A3021 RMK AO2 T02960147


Page loaded:  08:43 UTC  |   01:43 AM Pacific  |   02:43 AM Mountain  |   03:43 AM Central  |   04:43 AM Eastern

 

ADVISORIES

FORECASTS

FORECASTS

OBSERVATIONS

USER TOOLS

ABOUT US